sensor_id;sensor_type;location;lat;lon;timestamp;P1;durP1;ratioP1;P2;durP2;ratioP2
5412;SDS011;2729;50.056;8.678;2023-03-13T00:01:30;7.90;;;2.20;;
5412;SDS011;2729;50.056;8.678;2023-03-13T00:03:59;6.73;;;2.50;;
5412;SDS011;2729;50.056;8.678;2023-03-13T00:06:26;6.93;;;1.90;;
5412;SDS011;2729;50.056;8.678;2023-03-13T00:08:56;6.37;;;1.90;;
5412;SDS011;2729;50.056;8.678;2023-03-13T00:11:25;11.73;;;2.70;;
5412;SDS011;2729;50.056;8.678;2023-03-13T00:13:54;4.70;;;1.80;;
5412;SDS011;2729;50.056;8.678;2023-03-13T00:16:22;7.93;;;2.03;;
5412;SDS011;2729;50.056;8.678;2023-03-13T00:18:50;5.17;;;2.10;;
5412;SDS011;2729;50.056;8.678;2023-03-13T00:21:18;5.53;;;1.77;;
5412;SDS011;2729;50.056;8.678;2023-03-13T00:23:45;5.03;;;2.40;;
5412;SDS011;2729;50.056;8.678;2023-03-13T00:26:12;16.93;;;1.83;;
5412;SDS011;2729;50.056;8.678;2023-03-13T00:28:40;6.60;;;2.50;;
5412;SDS011;2729;50.056;8.678;2023-03-13T00:31:09;13.23;;;2.23;;
5412;SDS011;2729;50.056;8.678;2023-03-13T00:33:38;4.40;;;2.27;;
5412;SDS011;2729;50.056;8.678;2023-03-13T00:36:10;1.87;;;1.30;;
5412;SDS011;2729;50.056;8.678;2023-03-13T00:38:38;7.30;;;2.27;;
5412;SDS011;2729;50.056;8.678;2023-03-13T00:41:05;12.13;;;2.57;;
5412;SDS011;2729;50.056;8.678;2023-03-13T00:43:32;2.93;;;1.37;;
5412;SDS011;2729;50.056;8.678;2023-03-13T00:45:59;6.17;;;2.13;;
5412;SDS011;2729;50.056;8.678;2023-03-13T00:48:26;4.63;;;1.97;;
5412;SDS011;2729;50.056;8.678;2023-03-13T00:50:52;5.43;;;2.00;;
5412;SDS011;2729;50.056;8.678;2023-03-13T00:53:19;8.23;;;2.13;;
5412;SDS011;2729;50.056;8.678;2023-03-13T00:55:52;7.70;;;2.10;;
5412;SDS011;2729;50.056;8.678;2023-03-13T00:58:19;7.00;;;2.50;;
5412;SDS011;2729;50.056;8.678;2023-03-13T01:00:46;6.90;;;2.10;;
5412;SDS011;2729;50.056;8.678;2023-03-13T01:03:12;4.00;;;1.77;;
5412;SDS011;2729;50.056;8.678;2023-03-13T01:05:38;9.20;;;1.57;;
5412;SDS011;2729;50.056;8.678;2023-03-13T01:08:04;10.97;;;1.97;;
5412;SDS011;2729;50.056;8.678;2023-03-13T01:10:30;6.67;;;1.90;;
5412;SDS011;2729;50.056;8.678;2023-03-13T01:12:56;7.57;;;1.90;;
5412;SDS011;2729;50.056;8.678;2023-03-13T01:15:23;5.83;;;1.73;;
5412;SDS011;2729;50.056;8.678;2023-03-13T01:17:49;5.80;;;1.87;;
5412;SDS011;2729;50.056;8.678;2023-03-13T01:20:15;3.13;;;1.40;;
5412;SDS011;2729;50.056;8.678;2023-03-13T01:22:41;9.97;;;1.73;;
5412;SDS011;2729;50.056;8.678;2023-03-13T01:25:07;9.23;;;2.03;;
5412;SDS011;2729;50.056;8.678;2023-03-13T01:27:33;3.23;;;1.50;;
5412;SDS011;2729;50.056;8.678;2023-03-13T01:29:59;10.80;;;2.30;;
5412;SDS011;2729;50.056;8.678;2023-03-13T01:32:25;3.70;;;1.50;;
5412;SDS011;2729;50.056;8.678;2023-03-13T01:34:51;4.87;;;1.67;;
5412;SDS011;2729;50.056;8.678;2023-03-13T01:37:17;5.23;;;1.77;;
5412;SDS011;2729;50.056;8.678;2023-03-13T01:39:43;2.30;;;1.50;;
5412;SDS011;2729;50.056;8.678;2023-03-13T01:42:09;5.93;;;1.60;;
5412;SDS011;2729;50.056;8.678;2023-03-13T01:44:51;5.50;;;1.90;;
5412;SDS011;2729;50.056;8.678;2023-03-13T01:47:23;14.93;;;1.67;;
5412;SDS011;2729;50.056;8.678;2023-03-13T01:50:10;8.53;;;2.40;;
5412;SDS011;2729;50.056;8.678;2023-03-13T01:53:02;1.80;;;1.40;;
5412;SDS011;2729;50.056;8.678;2023-03-13T01:55:29;3.50;;;1.67;;
5412;SDS011;2729;50.056;8.678;2023-03-13T01:57:55;3.03;;;1.43;;
5412;SDS011;2729;50.056;8.678;2023-03-13T02:00:24;5.93;;;1.97;;
5412;SDS011;2729;50.056;8.678;2023-03-13T02:02:54;9.43;;;1.73;;
5412;SDS011;2729;50.056;8.678;2023-03-13T02:05:24;7.03;;;2.23;;
5412;SDS011;2729;50.056;8.678;2023-03-13T02:10:20;2.50;;;1.40;;
5412;SDS011;2729;50.056;8.678;2023-03-13T02:12:47;4.37;;;1.93;;
5412;SDS011;2729;50.056;8.678;2023-03-13T02:15:15;6.63;;;1.97;;
5412;SDS011;2729;50.056;8.678;2023-03-13T02:17:45;5.70;;;2.23;;
5412;SDS011;2729;50.056;8.678;2023-03-13T02:20:12;6.13;;;1.90;;
5412;SDS011;2729;50.056;8.678;2023-03-13T02:27:54;3.60;;;1.70;;
5412;SDS011;2729;50.056;8.678;2023-03-13T02:30:24;5.40;;;1.60;;
5412;SDS011;2729;50.056;8.678;2023-03-13T02:32:50;5.97;;;1.53;;
5412;SDS011;2729;50.056;8.678;2023-03-13T02:35:17;4.13;;;1.73;;
5412;SDS011;2729;50.056;8.678;2023-03-13T02:37:46;7.10;;;1.90;;
5412;SDS011;2729;50.056;8.678;2023-03-13T02:40:20;7.93;;;1.80;;
5412;SDS011;2729;50.056;8.678;2023-03-13T02:42:49;7.60;;;1.23;;
5412;SDS011;2729;50.056;8.678;2023-03-13T02:45:17;5.23;;;1.97;;
5412;SDS011;2729;50.056;8.678;2023-03-13T02:47:43;5.90;;;1.90;;
5412;SDS011;2729;50.056;8.678;2023-03-13T02:50:10;4.37;;;1.33;;
5412;SDS011;2729;50.056;8.678;2023-03-13T02:52:42;2.30;;;1.40;;
5412;SDS011;2729;50.056;8.678;2023-03-13T02:55:13;5.90;;;1.67;;
5412;SDS011;2729;50.056;8.678;2023-03-13T02:57:47;4.00;;;1.37;;
5412;SDS011;2729;50.056;8.678;2023-03-13T03:00:13;3.60;;;1.80;;
5412;SDS011;2729;50.056;8.678;2023-03-13T03:02:42;2.00;;;1.43;;
5412;SDS011;2729;50.056;8.678;2023-03-13T03:05:09;5.90;;;1.60;;
5412;SDS011;2729;50.056;8.678;2023-03-13T03:07:36;3.23;;;1.73;;
5412;SDS011;2729;50.056;8.678;2023-03-13T03:10:05;2.83;;;1.20;;
5412;SDS011;2729;50.056;8.678;2023-03-13T03:12:31;3.67;;;1.60;;
5412;SDS011;2729;50.056;8.678;2023-03-13T03:14:57;3.17;;;1.70;;
5412;SDS011;2729;50.056;8.678;2023-03-13T03:17:24;6.03;;;1.80;;
5412;SDS011;2729;50.056;8.678;2023-03-13T03:19:52;3.30;;;1.10;;
5412;SDS011;2729;50.056;8.678;2023-03-13T03:22:19;1.80;;;1.70;;
5412;SDS011;2729;50.056;8.678;2023-03-13T03:24:45;6.33;;;1.97;;
5412;SDS011;2729;50.056;8.678;2023-03-13T03:27:10;2.77;;;1.33;;
5412;SDS011;2729;50.056;8.678;2023-03-13T03:29:42;4.47;;;1.60;;
5412;SDS011;2729;50.056;8.678;2023-03-13T03:32:08;2.30;;;1.33;;
5412;SDS011;2729;50.056;8.678;2023-03-13T03:34:34;8.73;;;1.20;;
5412;SDS011;2729;50.056;8.678;2023-03-13T03:37:00;3.37;;;1.13;;
5412;SDS011;2729;50.056;8.678;2023-03-13T03:39:27;4.47;;;1.77;;
5412;SDS011;2729;50.056;8.678;2023-03-13T03:41:54;4.40;;;1.63;;
5412;SDS011;2729;50.056;8.678;2023-03-13T03:44:20;4.30;;;1.37;;
5412;SDS011;2729;50.056;8.678;2023-03-13T03:46:58;1.20;;;1.20;;
5412;SDS011;2729;50.056;8.678;2023-03-13T03:49:26;2.40;;;1.40;;
5412;SDS011;2729;50.056;8.678;2023-03-13T03:51:52;4.10;;;1.53;;
5412;SDS011;2729;50.056;8.678;2023-03-13T03:54:23;5.60;;;1.70;;
5412;SDS011;2729;50.056;8.678;2023-03-13T03:56:49;10.03;;;1.80;;
5412;SDS011;2729;50.056;8.678;2023-03-13T03:59:15;5.40;;;1.50;;
5412;SDS011;2729;50.056;8.678;2023-03-13T04:01:45;2.70;;;1.70;;
5412;SDS011;2729;50.056;8.678;2023-03-13T04:04:12;3.30;;;1.77;;
5412;SDS011;2729;50.056;8.678;2023-03-13T04:06:41;6.47;;;1.47;;
5412;SDS011;2729;50.056;8.678;2023-03-13T04:09:07;2.63;;;1.37;;
5412;SDS011;2729;50.056;8.678;2023-03-13T04:11:35;6.63;;;1.50;;
5412;SDS011;2729;50.056;8.678;2023-03-13T04:14:02;4.50;;;1.90;;
5412;SDS011;2729;50.056;8.678;2023-03-13T04:16:28;1.77;;;1.00;;
5412;SDS011;2729;50.056;8.678;2023-03-13T04:18:55;4.00;;;1.57;;
5412;SDS011;2729;50.056;8.678;2023-03-13T04:21:22;4.57;;;1.77;;
5412;SDS011;2729;50.056;8.678;2023-03-13T04:23:53;2.17;;;1.40;;
5412;SDS011;2729;50.056;8.678;2023-03-13T04:26:19;1.90;;;1.20;;
5412;SDS011;2729;50.056;8.678;2023-03-13T04:28:45;2.00;;;1.17;;
5412;SDS011;2729;50.056;8.678;2023-03-13T04:31:16;3.47;;;1.40;;
5412;SDS011;2729;50.056;8.678;2023-03-13T04:34:10;5.70;;;1.33;;
5412;SDS011;2729;50.056;8.678;2023-03-13T04:37:05;3.43;;;1.40;;
5412;SDS011;2729;50.056;8.678;2023-03-13T04:39:59;2.10;;;1.33;;
5412;SDS011;2729;50.056;8.678;2023-03-13T04:43:01;3.23;;;1.53;;
5412;SDS011;2729;50.056;8.678;2023-03-13T04:45:45;3.50;;;1.73;;
5412;SDS011;2729;50.056;8.678;2023-03-13T04:48:30;9.70;;;1.97;;
5412;SDS011;2729;50.056;8.678;2023-03-13T04:51:12;3.40;;;1.30;;
5412;SDS011;2729;50.056;8.678;2023-03-13T04:53:47;1.90;;;1.37;;
5412;SDS011;2729;50.056;8.678;2023-03-13T04:56:38;2.80;;;1.07;;
5412;SDS011;2729;50.056;8.678;2023-03-13T04:59:23;2.83;;;1.20;;
5412;SDS011;2729;50.056;8.678;2023-03-13T05:02:24;1.60;;;1.20;;
5412;SDS011;2729;50.056;8.678;2023-03-13T05:05:09;4.10;;;1.20;;
5412;SDS011;2729;50.056;8.678;2023-03-13T05:07:52;7.70;;;1.43;;
5412;SDS011;2729;50.056;8.678;2023-03-13T05:10:29;2.77;;;1.07;;
5412;SDS011;2729;50.056;8.678;2023-03-13T05:13:13;3.27;;;1.70;;
5412;SDS011;2729;50.056;8.678;2023-03-13T05:15:53;1.03;;;0.90;;
5412;SDS011;2729;50.056;8.678;2023-03-13T05:18:32;1.17;;;1.17;;
5412;SDS011;2729;50.056;8.678;2023-03-13T05:21:13;1.77;;;1.00;;
5412;SDS011;2729;50.056;8.678;2023-03-13T05:23:57;1.27;;;1.00;;
5412;SDS011;2729;50.056;8.678;2023-03-13T05:26:37;7.10;;;1.40;;
5412;SDS011;2729;50.056;8.678;2023-03-13T05:29:20;1.03;;;0.80;;
5412;SDS011;2729;50.056;8.678;2023-03-13T05:31:56;7.13;;;1.40;;
5412;SDS011;2729;50.056;8.678;2023-03-13T05:34:32;4.20;;;1.17;;
5412;SDS011;2729;50.056;8.678;2023-03-13T05:37:09;4.20;;;1.10;;
5412;SDS011;2729;50.056;8.678;2023-03-13T05:39:54;3.30;;;1.23;;
5412;SDS011;2729;50.056;8.678;2023-03-13T05:42:36;1.63;;;1.10;;
5412;SDS011;2729;50.056;8.678;2023-03-13T05:45:34;2.93;;;1.23;;
5412;SDS011;2729;50.056;8.678;2023-03-13T05:48:15;5.80;;;1.00;;
5412;SDS011;2729;50.056;8.678;2023-03-13T05:50:58;1.40;;;1.13;;
5412;SDS011;2729;50.056;8.678;2023-03-13T05:53:50;1.90;;;0.90;;
5412;SDS011;2729;50.056;8.678;2023-03-13T05:56:31;3.03;;;1.20;;
5412;SDS011;2729;50.056;8.678;2023-03-13T05:59:09;4.83;;;1.10;;
5412;SDS011;2729;50.056;8.678;2023-03-13T06:01:55;1.20;;;1.10;;
5412;SDS011;2729;50.056;8.678;2023-03-13T06:04:29;1.93;;;1.13;;
5412;SDS011;2729;50.056;8.678;2023-03-13T06:06:55;1.03;;;0.93;;
5412;SDS011;2729;50.056;8.678;2023-03-13T06:09:22;1.20;;;1.10;;
5412;SDS011;2729;50.056;8.678;2023-03-13T06:11:48;2.30;;;0.90;;
5412;SDS011;2729;50.056;8.678;2023-03-13T06:14:14;1.67;;;1.00;;
5412;SDS011;2729;50.056;8.678;2023-03-13T06:16:46;3.23;;;2.23;;
5412;SDS011;2729;50.056;8.678;2023-03-13T06:19:18;1.07;;;1.03;;
5412;SDS011;2729;50.056;8.678;2023-03-13T06:21:47;1.90;;;1.10;;
5412;SDS011;2729;50.056;8.678;2023-03-13T06:24:13;2.87;;;1.00;;
5412;SDS011;2729;50.056;8.678;2023-03-13T06:26:39;0.97;;;0.97;;
5412;SDS011;2729;50.056;8.678;2023-03-13T06:29:05;1.23;;;0.97;;
5412;SDS011;2729;50.056;8.678;2023-03-13T06:31:31;1.70;;;1.00;;
5412;SDS011;2729;50.056;8.678;2023-03-13T06:33:58;2.80;;;1.40;;
5412;SDS011;2729;50.056;8.678;2023-03-13T06:36:24;1.67;;;1.03;;
5412;SDS011;2729;50.056;8.678;2023-03-13T06:38:50;1.37;;;1.07;;
5412;SDS011;2729;50.056;8.678;2023-03-13T06:41:16;3.20;;;1.13;;
5412;SDS011;2729;50.056;8.678;2023-03-13T06:43:42;2.97;;;1.47;;
5412;SDS011;2729;50.056;8.678;2023-03-13T06:46:10;2.63;;;1.23;;
5412;SDS011;2729;50.056;8.678;2023-03-13T06:48:45;2.00;;;1.30;;
5412;SDS011;2729;50.056;8.678;2023-03-13T06:51:11;2.20;;;1.27;;
5412;SDS011;2729;50.056;8.678;2023-03-13T06:53:38;1.10;;;1.10;;
5412;SDS011;2729;50.056;8.678;2023-03-13T06:56:05;2.30;;;1.20;;
5412;SDS011;2729;50.056;8.678;2023-03-13T06:58:31;1.30;;;1.10;;
5412;SDS011;2729;50.056;8.678;2023-03-13T07:00:58;1.43;;;0.93;;
5412;SDS011;2729;50.056;8.678;2023-03-13T07:03:30;1.30;;;1.20;;
5412;SDS011;2729;50.056;8.678;2023-03-13T07:05:56;1.50;;;1.20;;
5412;SDS011;2729;50.056;8.678;2023-03-13T07:08:23;6.03;;;1.10;;
5412;SDS011;2729;50.056;8.678;2023-03-13T07:10:50;1.27;;;0.93;;
5412;SDS011;2729;50.056;8.678;2023-03-13T07:13:17;5.47;;;1.10;;
5412;SDS011;2729;50.056;8.678;2023-03-13T07:15:46;1.27;;;1.00;;
5412;SDS011;2729;50.056;8.678;2023-03-13T07:18:13;1.00;;;1.00;;
5412;SDS011;2729;50.056;8.678;2023-03-13T07:20:39;1.27;;;1.10;;
5412;SDS011;2729;50.056;8.678;2023-03-13T07:23:08;0.87;;;0.87;;
5412;SDS011;2729;50.056;8.678;2023-03-13T07:25:34;3.23;;;1.20;;
5412;SDS011;2729;50.056;8.678;2023-03-13T07:28:00;1.20;;;1.10;;
5412;SDS011;2729;50.056;8.678;2023-03-13T07:30:26;1.00;;;1.00;;
5412;SDS011;2729;50.056;8.678;2023-03-13T07:32:52;4.57;;;1.00;;
5412;SDS011;2729;50.056;8.678;2023-03-13T07:35:18;0.90;;;0.90;;
5412;SDS011;2729;50.056;8.678;2023-03-13T07:37:44;1.37;;;0.90;;
5412;SDS011;2729;50.056;8.678;2023-03-13T07:40:10;1.20;;;1.17;;
5412;SDS011;2729;50.056;8.678;2023-03-13T07:42:40;0.70;;;0.70;;
5412;SDS011;2729;50.056;8.678;2023-03-13T07:45:07;1.30;;;0.90;;
5412;SDS011;2729;50.056;8.678;2023-03-13T07:47:34;0.90;;;0.87;;
5412;SDS011;2729;50.056;8.678;2023-03-13T07:50:00;0.80;;;0.70;;
5412;SDS011;2729;50.056;8.678;2023-03-13T07:52:26;4.30;;;1.17;;
5412;SDS011;2729;50.056;8.678;2023-03-13T07:54:53;0.80;;;0.80;;
5412;SDS011;2729;50.056;8.678;2023-03-13T07:57:19;0.93;;;0.93;;
5412;SDS011;2729;50.056;8.678;2023-03-13T07:59:45;1.23;;;0.93;;
5412;SDS011;2729;50.056;8.678;2023-03-13T08:02:13;0.53;;;0.53;;
5412;SDS011;2729;50.056;8.678;2023-03-13T08:04:41;0.83;;;0.83;;
5412;SDS011;2729;50.056;8.678;2023-03-13T08:07:08;1.10;;;0.90;;
5412;SDS011;2729;50.056;8.678;2023-03-13T08:09:34;0.93;;;0.93;;
5412;SDS011;2729;50.056;8.678;2023-03-13T08:12:00;0.90;;;0.90;;
5412;SDS011;2729;50.056;8.678;2023-03-13T08:14:26;1.30;;;1.20;;
5412;SDS011;2729;50.056;8.678;2023-03-13T08:16:52;0.97;;;0.97;;
5412;SDS011;2729;50.056;8.678;2023-03-13T08:19:18;6.70;;;0.77;;
5412;SDS011;2729;50.056;8.678;2023-03-13T08:21:44;0.90;;;0.90;;
5412;SDS011;2729;50.056;8.678;2023-03-13T08:24:11;0.80;;;0.80;;
5412;SDS011;2729;50.056;8.678;2023-03-13T08:26:38;1.27;;;1.13;;
5412;SDS011;2729;50.056;8.678;2023-03-13T08:29:09;1.00;;;1.00;;
5412;SDS011;2729;50.056;8.678;2023-03-13T08:31:47;1.20;;;1.20;;
5412;SDS011;2729;50.056;8.678;2023-03-13T08:34:14;1.20;;;1.10;;
5412;SDS011;2729;50.056;8.678;2023-03-13T08:36:41;1.27;;;1.27;;
5412;SDS011;2729;50.056;8.678;2023-03-13T08:39:12;2.50;;;1.33;;
5412;SDS011;2729;50.056;8.678;2023-03-13T08:41:39;1.10;;;1.10;;
5412;SDS011;2729;50.056;8.678;2023-03-13T08:44:06;0.80;;;0.80;;
5412;SDS011;2729;50.056;8.678;2023-03-13T08:46:33;1.20;;;1.20;;
5412;SDS011;2729;50.056;8.678;2023-03-13T08:49:00;2.10;;;1.40;;
5412;SDS011;2729;50.056;8.678;2023-03-13T08:51:27;1.53;;;1.47;;
5412;SDS011;2729;50.056;8.678;2023-03-13T08:53:54;1.40;;;1.40;;
5412;SDS011;2729;50.056;8.678;2023-03-13T08:56:22;1.03;;;1.03;;
5412;SDS011;2729;50.056;8.678;2023-03-13T08:58:53;0.73;;;0.73;;
5412;SDS011;2729;50.056;8.678;2023-03-13T09:01:22;1.30;;;1.20;;
5412;SDS011;2729;50.056;8.678;2023-03-13T09:03:49;2.00;;;1.50;;
5412;SDS011;2729;50.056;8.678;2023-03-13T09:06:15;1.43;;;1.20;;
5412;SDS011;2729;50.056;8.678;2023-03-13T09:08:44;1.50;;;1.33;;
5412;SDS011;2729;50.056;8.678;2023-03-13T09:11:11;4.20;;;1.60;;
5412;SDS011;2729;50.056;8.678;2023-03-13T09:13:40;1.20;;;1.20;;
5412;SDS011;2729;50.056;8.678;2023-03-13T09:16:13;13.23;;;1.10;;
5412;SDS011;2729;50.056;8.678;2023-03-13T09:18:41;4.27;;;1.30;;
5412;SDS011;2729;50.056;8.678;2023-03-13T09:24:20;2.03;;;1.20;;
5412;SDS011;2729;50.056;8.678;2023-03-13T09:26:45;1.30;;;1.23;;
5412;SDS011;2729;50.056;8.678;2023-03-13T09:29:11;1.60;;;1.40;;
5412;SDS011;2729;50.056;8.678;2023-03-13T09:31:37;2.10;;;1.20;;
5412;SDS011;2729;50.056;8.678;2023-03-13T09:34:03;1.37;;;1.27;;
5412;SDS011;2729;50.056;8.678;2023-03-13T09:36:29;1.23;;;1.13;;
5412;SDS011;2729;50.056;8.678;2023-03-13T09:38:56;3.50;;;1.10;;
5412;SDS011;2729;50.056;8.678;2023-03-13T09:41:25;1.00;;;1.00;;
5412;SDS011;2729;50.056;8.678;2023-03-13T09:43:59;0.93;;;0.93;;
5412;SDS011;2729;50.056;8.678;2023-03-13T09:46:32;1.20;;;1.10;;
5412;SDS011;2729;50.056;8.678;2023-03-13T09:49:09;1.17;;;1.00;;
5412;SDS011;2729;50.056;8.678;2023-03-13T09:51:42;1.30;;;1.30;;
5412;SDS011;2729;50.056;8.678;2023-03-13T10:00:01;1.20;;;1.20;;
5412;SDS011;2729;50.056;8.678;2023-03-13T10:02:39;9.03;;;1.40;;
5412;SDS011;2729;50.056;8.678;2023-03-13T10:07:45;1.63;;;1.43;;
5412;SDS011;2729;50.056;8.678;2023-03-13T10:10:12;2.07;;;1.40;;
5412;SDS011;2729;50.056;8.678;2023-03-13T10:13:07;1.50;;;1.40;;
5412;SDS011;2729;50.056;8.678;2023-03-13T10:15:42;1.10;;;1.10;;
5412;SDS011;2729;50.056;8.678;2023-03-13T10:18:22;1.33;;;1.33;;
5412;SDS011;2729;50.056;8.678;2023-03-13T10:20:50;1.37;;;1.27;;
5412;SDS011;2729;50.056;8.678;2023-03-13T10:23:24;5.23;;;1.80;;
5412;SDS011;2729;50.056;8.678;2023-03-13T10:25:57;4.10;;;1.60;;
5412;SDS011;2729;50.056;8.678;2023-03-13T10:28:24;1.37;;;1.23;;
5412;SDS011;2729;50.056;8.678;2023-03-13T10:30:54;1.40;;;1.30;;
5412;SDS011;2729;50.056;8.678;2023-03-13T10:33:41;1.30;;;1.20;;
5412;SDS011;2729;50.056;8.678;2023-03-13T10:36:09;1.60;;;1.50;;
5412;SDS011;2729;50.056;8.678;2023-03-13T10:38:52;3.70;;;1.90;;
5412;SDS011;2729;50.056;8.678;2023-03-13T10:41:24;1.17;;;1.17;;
5412;SDS011;2729;50.056;8.678;2023-03-13T10:43:54;7.40;;;1.40;;
5412;SDS011;2729;50.056;8.678;2023-03-13T10:46:27;1.00;;;1.00;;
5412;SDS011;2729;50.056;8.678;2023-03-13T10:48:55;1.70;;;1.60;;
5412;SDS011;2729;50.056;8.678;2023-03-13T10:51:29;1.90;;;1.77;;
5412;SDS011;2729;50.056;8.678;2023-03-13T10:54:21;1.50;;;1.40;;
5412;SDS011;2729;50.056;8.678;2023-03-13T10:56:48;1.47;;;1.37;;
5412;SDS011;2729;50.056;8.678;2023-03-13T10:59:20;0.93;;;0.93;;
5412;SDS011;2729;50.056;8.678;2023-03-13T11:01:48;5.83;;;1.00;;
5412;SDS011;2729;50.056;8.678;2023-03-13T11:04:24;1.03;;;0.90;;
5412;SDS011;2729;50.056;8.678;2023-03-13T11:06:58;1.30;;;1.20;;
5412;SDS011;2729;50.056;8.678;2023-03-13T11:09:31;1.47;;;1.37;;
5412;SDS011;2729;50.056;8.678;2023-03-13T11:12:02;1.30;;;1.20;;
5412;SDS011;2729;50.056;8.678;2023-03-13T11:14:45;1.40;;;1.27;;
5412;SDS011;2729;50.056;8.678;2023-03-13T11:17:18;1.57;;;1.50;;
5412;SDS011;2729;50.056;8.678;2023-03-13T11:22:37;1.33;;;1.23;;
5412;SDS011;2729;50.056;8.678;2023-03-13T11:36:17;1.40;;;1.37;;
5412;SDS011;2729;50.056;8.678;2023-03-13T11:38:48;2.70;;;1.13;;
5412;SDS011;2729;50.056;8.678;2023-03-13T11:41:41;1.00;;;1.00;;
5412;SDS011;2729;50.056;8.678;2023-03-13T11:55:45;1.40;;;1.00;;
5412;SDS011;2729;50.056;8.678;2023-03-13T11:58:31;1.20;;;1.20;;
5412;SDS011;2729;50.056;8.678;2023-03-13T12:01:15;2.50;;;1.40;;
5412;SDS011;2729;50.056;8.678;2023-03-13T12:06:32;1.37;;;1.27;;
5412;SDS011;2729;50.056;8.678;2023-03-13T12:09:05;1.57;;;1.40;;
5412;SDS011;2729;50.056;8.678;2023-03-13T12:14:20;1.53;;;1.43;;
5412;SDS011;2729;50.056;8.678;2023-03-13T12:16:55;1.20;;;1.20;;
5412;SDS011;2729;50.056;8.678;2023-03-13T12:19:44;1.23;;;1.13;;
5412;SDS011;2729;50.056;8.678;2023-03-13T12:22:19;3.30;;;0.90;;
5412;SDS011;2729;50.056;8.678;2023-03-13T12:25:05;1.80;;;1.30;;
5412;SDS011;2729;50.056;8.678;2023-03-13T12:27:40;1.87;;;1.53;;
5412;SDS011;2729;50.056;8.678;2023-03-13T12:33:14;1.00;;;1.00;;
5412;SDS011;2729;50.056;8.678;2023-03-13T12:35:45;1.13;;;1.13;;
5412;SDS011;2729;50.056;8.678;2023-03-13T12:38:25;1.00;;;1.00;;
5412;SDS011;2729;50.056;8.678;2023-03-13T12:41:10;1.20;;;1.20;;
5412;SDS011;2729;50.056;8.678;2023-03-13T12:43:44;1.03;;;1.03;;
5412;SDS011;2729;50.056;8.678;2023-03-13T12:46:19;1.07;;;1.07;;
5412;SDS011;2729;50.056;8.678;2023-03-13T12:49:19;2.77;;;1.73;;
5412;SDS011;2729;50.056;8.678;2023-03-13T12:54:44;5.17;;;1.40;;
5412;SDS011;2729;50.056;8.678;2023-03-13T12:57:26;1.83;;;1.73;;
5412;SDS011;2729;50.056;8.678;2023-03-13T13:00:20;1.87;;;1.30;;
5412;SDS011;2729;50.056;8.678;2023-03-13T13:05:31;2.53;;;1.37;;
5412;SDS011;2729;50.056;8.678;2023-03-13T13:07:57;1.70;;;1.60;;
5412;SDS011;2729;50.056;8.678;2023-03-13T13:10:23;2.07;;;1.87;;
5412;SDS011;2729;50.056;8.678;2023-03-13T13:15:40;2.20;;;2.00;;
5412;SDS011;2729;50.056;8.678;2023-03-13T13:18:13;2.03;;;1.83;;
5412;SDS011;2729;50.056;8.678;2023-03-13T13:21:17;1.73;;;1.63;;
5412;SDS011;2729;50.056;8.678;2023-03-13T13:23:47;2.03;;;1.77;;
5412;SDS011;2729;50.056;8.678;2023-03-13T13:28:54;1.90;;;1.80;;
5412;SDS011;2729;50.056;8.678;2023-03-13T13:31:45;1.30;;;1.20;;
5412;SDS011;2729;50.056;8.678;2023-03-13T13:37:02;2.03;;;1.83;;
5412;SDS011;2729;50.056;8.678;2023-03-13T13:39:48;2.33;;;1.73;;
5412;SDS011;2729;50.056;8.678;2023-03-13T13:45:02;1.57;;;1.47;;
5412;SDS011;2729;50.056;8.678;2023-03-13T13:47:30;1.37;;;1.27;;
5412;SDS011;2729;50.056;8.678;2023-03-13T13:49:57;1.80;;;1.70;;
5412;SDS011;2729;50.056;8.678;2023-03-13T13:52:34;3.33;;;1.60;;
5412;SDS011;2729;50.056;8.678;2023-03-13T13:55:03;1.57;;;1.47;;
5412;SDS011;2729;50.056;8.678;2023-03-13T14:00:40;1.00;;;1.00;;
5412;SDS011;2729;50.056;8.678;2023-03-13T14:03:18;4.27;;;1.50;;
5412;SDS011;2729;50.056;8.678;2023-03-13T14:05:47;1.23;;;1.13;;
5412;SDS011;2729;50.056;8.678;2023-03-13T14:08:19;1.10;;;1.10;;
5412;SDS011;2729;50.056;8.678;2023-03-13T14:10:53;1.40;;;1.30;;
5412;SDS011;2729;50.056;8.678;2023-03-13T14:13:29;1.57;;;1.40;;
5412;SDS011;2729;50.056;8.678;2023-03-13T14:15:55;2.30;;;1.23;;
5412;SDS011;2729;50.056;8.678;2023-03-13T14:18:22;1.20;;;1.10;;
5412;SDS011;2729;50.056;8.678;2023-03-13T14:20:51;4.93;;;1.30;;
5412;SDS011;2729;50.056;8.678;2023-03-13T14:23:30;2.30;;;1.20;;
5412;SDS011;2729;50.056;8.678;2023-03-13T14:26:07;1.40;;;1.00;;
5412;SDS011;2729;50.056;8.678;2023-03-13T14:28:36;0.73;;;0.73;;
5412;SDS011;2729;50.056;8.678;2023-03-13T14:31:05;1.77;;;1.23;;
5412;SDS011;2729;50.056;8.678;2023-03-13T14:33:31;7.03;;;1.13;;
5412;SDS011;2729;50.056;8.678;2023-03-13T14:35:59;1.07;;;1.00;;
5412;SDS011;2729;50.056;8.678;2023-03-13T14:38:26;0.93;;;0.93;;
5412;SDS011;2729;50.056;8.678;2023-03-13T14:40:57;1.40;;;1.27;;
5412;SDS011;2729;50.056;8.678;2023-03-13T14:43:39;0.80;;;0.80;;
5412;SDS011;2729;50.056;8.678;2023-03-13T14:48:56;0.83;;;0.83;;
5412;SDS011;2729;50.056;8.678;2023-03-13T14:51:31;1.00;;;1.00;;
5412;SDS011;2729;50.056;8.678;2023-03-13T14:53:58;2.20;;;1.23;;
5412;SDS011;2729;50.056;8.678;2023-03-13T14:56:36;0.83;;;0.83;;
5412;SDS011;2729;50.056;8.678;2023-03-13T14:59:07;1.20;;;1.10;;
5412;SDS011;2729;50.056;8.678;2023-03-13T15:01:40;2.30;;;0.90;;
5412;SDS011;2729;50.056;8.678;2023-03-13T15:04:06;0.93;;;0.90;;
5412;SDS011;2729;50.056;8.678;2023-03-13T15:06:32;1.10;;;1.00;;
5412;SDS011;2729;50.056;8.678;2023-03-13T15:09:17;5.40;;;1.10;;
5412;SDS011;2729;50.056;8.678;2023-03-13T15:11:53;1.57;;;0.90;;
5412;SDS011;2729;50.056;8.678;2023-03-13T15:17:00;1.63;;;1.00;;
5412;SDS011;2729;50.056;8.678;2023-03-13T15:19:30;2.60;;;1.10;;
5412;SDS011;2729;50.056;8.678;2023-03-13T15:21:56;1.53;;;1.30;;
5412;SDS011;2729;50.056;8.678;2023-03-13T15:24:23;1.40;;;1.30;;
5412;SDS011;2729;50.056;8.678;2023-03-13T15:26:49;2.30;;;1.30;;
5412;SDS011;2729;50.056;8.678;2023-03-13T15:29:15;1.13;;;1.13;;
5412;SDS011;2729;50.056;8.678;2023-03-13T15:31:42;1.57;;;1.40;;
5412;SDS011;2729;50.056;8.678;2023-03-13T15:34:09;3.37;;;1.47;;
5412;SDS011;2729;50.056;8.678;2023-03-13T15:36:37;1.10;;;1.10;;
5412;SDS011;2729;50.056;8.678;2023-03-13T15:39:08;1.00;;;0.90;;
5412;SDS011;2729;50.056;8.678;2023-03-13T15:41:38;1.63;;;1.00;;
5412;SDS011;2729;50.056;8.678;2023-03-13T15:44:04;2.87;;;1.43;;
5412;SDS011;2729;50.056;8.678;2023-03-13T15:46:31;4.80;;;1.07;;
5412;SDS011;2729;50.056;8.678;2023-03-13T15:48:59;1.00;;;0.80;;
5412;SDS011;2729;50.056;8.678;2023-03-13T15:51:25;0.90;;;0.90;;
5412;SDS011;2729;50.056;8.678;2023-03-13T15:53:52;0.67;;;0.67;;
5412;SDS011;2729;50.056;8.678;2023-03-13T15:56:19;1.43;;;0.87;;
5412;SDS011;2729;50.056;8.678;2023-03-13T15:58:48;5.30;;;1.10;;
5412;SDS011;2729;50.056;8.678;2023-03-13T16:01:15;4.73;;;1.80;;
5412;SDS011;2729;50.056;8.678;2023-03-13T16:03:42;3.27;;;1.70;;
5412;SDS011;2729;50.056;8.678;2023-03-13T16:06:19;2.50;;;1.00;;
5412;SDS011;2729;50.056;8.678;2023-03-13T16:08:55;1.93;;;0.90;;
5412;SDS011;2729;50.056;8.678;2023-03-13T16:11:24;1.00;;;0.90;;
5412;SDS011;2729;50.056;8.678;2023-03-13T16:13:51;1.13;;;1.03;;
5412;SDS011;2729;50.056;8.678;2023-03-13T16:16:19;1.43;;;1.27;;
5412;SDS011;2729;50.056;8.678;2023-03-13T16:18:47;2.90;;;0.90;;
5412;SDS011;2729;50.056;8.678;2023-03-13T16:21:15;1.20;;;0.97;;
5412;SDS011;2729;50.056;8.678;2023-03-13T16:23:44;0.80;;;0.80;;
5412;SDS011;2729;50.056;8.678;2023-03-13T16:26:12;2.10;;;1.00;;
5412;SDS011;2729;50.056;8.678;2023-03-13T16:28:40;1.37;;;1.27;;
5412;SDS011;2729;50.056;8.678;2023-03-13T16:31:11;2.10;;;0.80;;
5412;SDS011;2729;50.056;8.678;2023-03-13T16:33:41;3.50;;;1.07;;
5412;SDS011;2729;50.056;8.678;2023-03-13T16:36:12;0.80;;;0.80;;
5412;SDS011;2729;50.056;8.678;2023-03-13T16:38:39;1.67;;;1.00;;
5412;SDS011;2729;50.056;8.678;2023-03-13T16:41:05;0.80;;;0.80;;
5412;SDS011;2729;50.056;8.678;2023-03-13T16:43:33;1.93;;;1.10;;
5412;SDS011;2729;50.056;8.678;2023-03-13T16:45:59;1.00;;;0.83;;
5412;SDS011;2729;50.056;8.678;2023-03-13T16:48:25;0.97;;;0.90;;
5412;SDS011;2729;50.056;8.678;2023-03-13T16:50:50;1.27;;;1.27;;
5412;SDS011;2729;50.056;8.678;2023-03-13T16:53:16;1.40;;;1.30;;
5412;SDS011;2729;50.056;8.678;2023-03-13T16:55:42;1.50;;;1.00;;
5412;SDS011;2729;50.056;8.678;2023-03-13T16:58:09;1.03;;;1.03;;